sensor_id;sensor_type;location;lat;lon;timestamp;P1;durP1;ratioP1;P2;durP2;ratioP2
27383;SDS011;14851;51.166;4.760;2024-01-27T00:00:24;19.02;;;5.30;;
27383;SDS011;14851;51.166;4.760;2024-01-27T00:02:51;15.75;;;4.93;;
27383;SDS011;14851;51.166;4.760;2024-01-27T00:05:17;12.10;;;5.07;;
27383;SDS011;14851;51.166;4.760;2024-01-27T00:07:42;17.08;;;6.38;;
27383;SDS011;14851;51.166;4.760;2024-01-27T00:10:11;12.00;;;5.90;;
27383;SDS011;14851;51.166;4.760;2024-01-27T00:12:36;12.27;;;4.50;;
27383;SDS011;14851;51.166;4.760;2024-01-27T00:15:02;12.70;;;4.85;;
27383;SDS011;14851;51.166;4.760;2024-01-27T00:17:29;12.68;;;5.53;;
27383;SDS011;14851;51.166;4.760;2024-01-27T00:19:57;15.00;;;5.30;;
27383;SDS011;14851;51.166;4.760;2024-01-27T00:22:22;12.98;;;4.72;;
27383;SDS011;14851;51.166;4.760;2024-01-27T00:24:48;12.05;;;4.97;;
27383;SDS011;14851;51.166;4.760;2024-01-27T00:27:16;13.32;;;4.97;;
27383;SDS011;14851;51.166;4.760;2024-01-27T00:29:42;21.60;;;5.63;;
27383;SDS011;14851;51.166;4.760;2024-01-27T00:32:13;13.73;;;5.00;;
27383;SDS011;14851;51.166;4.760;2024-01-27T00:34:41;12.68;;;5.20;;
27383;SDS011;14851;51.166;4.760;2024-01-27T00:37:08;17.20;;;5.50;;
27383;SDS011;14851;51.166;4.760;2024-01-27T00:39:34;14.48;;;5.32;;
27383;SDS011;14851;51.166;4.760;2024-01-27T00:42:01;15.38;;;5.32;;
27383;SDS011;14851;51.166;4.760;2024-01-27T00:44:27;10.07;;;4.47;;
27383;SDS011;14851;51.166;4.760;2024-01-27T00:46:53;23.17;;;6.63;;
27383;SDS011;14851;51.166;4.760;2024-01-27T00:49:19;18.65;;;7.07;;
27383;SDS011;14851;51.166;4.760;2024-01-27T00:51:45;13.95;;;6.03;;
27383;SDS011;14851;51.166;4.760;2024-01-27T00:54:11;20.15;;;6.72;;
27383;SDS011;14851;51.166;4.760;2024-01-27T00:56:37;22.13;;;6.35;;
27383;SDS011;14851;51.166;4.760;2024-01-27T00:59:05;19.38;;;7.30;;
27383;SDS011;14851;51.166;4.760;2024-01-27T01:01:34;17.50;;;6.07;;
27383;SDS011;14851;51.166;4.760;2024-01-27T01:04:02;17.33;;;5.55;;
27383;SDS011;14851;51.166;4.760;2024-01-27T01:06:28;14.77;;;5.55;;
27383;SDS011;14851;51.166;4.760;2024-01-27T01:08:54;16.70;;;5.63;;
27383;SDS011;14851;51.166;4.760;2024-01-27T01:11:20;18.98;;;5.07;;
27383;SDS011;14851;51.166;4.760;2024-01-27T01:13:49;18.80;;;6.28;;
27383;SDS011;14851;51.166;4.760;2024-01-27T01:16:15;19.10;;;6.57;;
27383;SDS011;14851;51.166;4.760;2024-01-27T01:18:40;16.80;;;5.47;;
27383;SDS011;14851;51.166;4.760;2024-01-27T01:21:07;19.45;;;5.63;;
27383;SDS011;14851;51.166;4.760;2024-01-27T01:23:35;16.13;;;5.82;;
27383;SDS011;14851;51.166;4.760;2024-01-27T01:26:01;18.35;;;6.60;;
27383;SDS011;14851;51.166;4.760;2024-01-27T01:28:28;16.83;;;5.75;;
27383;SDS011;14851;51.166;4.760;2024-01-27T01:30:55;17.40;;;6.45;;
27383;SDS011;14851;51.166;4.760;2024-01-27T01:33:22;20.38;;;6.22;;
27383;SDS011;14851;51.166;4.760;2024-01-27T01:35:48;14.60;;;6.18;;
27383;SDS011;14851;51.166;4.760;2024-01-27T01:38:14;17.40;;;6.78;;
27383;SDS011;14851;51.166;4.760;2024-01-27T01:40:40;15.60;;;6.15;;
27383;SDS011;14851;51.166;4.760;2024-01-27T01:43:10;20.40;;;6.30;;
27383;SDS011;14851;51.166;4.760;2024-01-27T01:45:40;8.48;;;4.70;;
27383;SDS011;14851;51.166;4.760;2024-01-27T01:48:09;17.33;;;5.95;;
27383;SDS011;14851;51.166;4.760;2024-01-27T01:50:35;14.50;;;5.03;;
27383;SDS011;14851;51.166;4.760;2024-01-27T01:53:03;12.40;;;4.80;;
27383;SDS011;14851;51.166;4.760;2024-01-27T01:55:31;16.50;;;5.28;;
27383;SDS011;14851;51.166;4.760;2024-01-27T01:57:58;16.88;;;5.30;;
27383;SDS011;14851;51.166;4.760;2024-01-27T02:00:24;17.35;;;5.20;;
27383;SDS011;14851;51.166;4.760;2024-01-27T02:02:49;13.25;;;5.43;;
27383;SDS011;14851;51.166;4.760;2024-01-27T02:05:16;15.35;;;5.30;;
27383;SDS011;14851;51.166;4.760;2024-01-27T02:07:45;13.38;;;4.97;;
27383;SDS011;14851;51.166;4.760;2024-01-27T02:10:14;13.07;;;4.97;;
27383;SDS011;14851;51.166;4.760;2024-01-27T02:12:42;10.35;;;4.05;;
27383;SDS011;14851;51.166;4.760;2024-01-27T02:15:12;14.82;;;5.32;;
27383;SDS011;14851;51.166;4.760;2024-01-27T02:17:41;18.02;;;5.93;;
27383;SDS011;14851;51.166;4.760;2024-01-27T02:20:09;12.13;;;4.70;;
27383;SDS011;14851;51.166;4.760;2024-01-27T02:22:37;12.52;;;4.55;;
27383;SDS011;14851;51.166;4.760;2024-01-27T02:25:03;12.73;;;4.63;;
27383;SDS011;14851;51.166;4.760;2024-01-27T02:27:29;14.05;;;5.22;;
27383;SDS011;14851;51.166;4.760;2024-01-27T02:29:55;15.43;;;5.90;;
27383;SDS011;14851;51.166;4.760;2024-01-27T02:32:23;14.23;;;5.00;;
27383;SDS011;14851;51.166;4.760;2024-01-27T02:34:49;11.60;;;4.32;;
27383;SDS011;14851;51.166;4.760;2024-01-27T02:37:15;12.05;;;4.53;;
27383;SDS011;14851;51.166;4.760;2024-01-27T02:39:41;12.10;;;4.97;;
27383;SDS011;14851;51.166;4.760;2024-01-27T02:42:07;14.23;;;5.18;;
27383;SDS011;14851;51.166;4.760;2024-01-27T02:44:32;13.10;;;4.80;;
27383;SDS011;14851;51.166;4.760;2024-01-27T02:46:58;12.15;;;4.47;;
27383;SDS011;14851;51.166;4.760;2024-01-27T02:49:24;14.60;;;5.43;;
27383;SDS011;14851;51.166;4.760;2024-01-27T02:51:52;12.13;;;4.53;;
27383;SDS011;14851;51.166;4.760;2024-01-27T02:54:18;14.50;;;5.03;;
27383;SDS011;14851;51.166;4.760;2024-01-27T02:56:46;14.27;;;5.47;;
27383;SDS011;14851;51.166;4.760;2024-01-27T02:59:15;13.00;;;5.05;;
27383;SDS011;14851;51.166;4.760;2024-01-27T03:01:43;16.27;;;4.68;;
27383;SDS011;14851;51.166;4.760;2024-01-27T03:04:09;17.75;;;5.90;;
27383;SDS011;14851;51.166;4.760;2024-01-27T03:06:35;11.93;;;4.97;;
27383;SDS011;14851;51.166;4.760;2024-01-27T03:09:03;16.20;;;4.97;;
27383;SDS011;14851;51.166;4.760;2024-01-27T03:11:29;9.90;;;5.03;;
27383;SDS011;14851;51.166;4.760;2024-01-27T03:13:59;14.65;;;4.93;;
27383;SDS011;14851;51.166;4.760;2024-01-27T03:16:25;12.38;;;5.07;;
27383;SDS011;14851;51.166;4.760;2024-01-27T03:18:51;17.45;;;4.97;;
27383;SDS011;14851;51.166;4.760;2024-01-27T03:21:17;18.20;;;5.80;;
27383;SDS011;14851;51.166;4.760;2024-01-27T03:23:43;16.15;;;5.72;;
27383;SDS011;14851;51.166;4.760;2024-01-27T03:26:08;13.65;;;5.57;;
27383;SDS011;14851;51.166;4.760;2024-01-27T03:28:34;11.45;;;5.03;;
27383;SDS011;14851;51.166;4.760;2024-01-27T03:31:02;16.95;;;5.38;;
27383;SDS011;14851;51.166;4.760;2024-01-27T03:33:28;19.23;;;6.10;;
27383;SDS011;14851;51.166;4.760;2024-01-27T03:35:55;13.82;;;5.68;;
27383;SDS011;14851;51.166;4.760;2024-01-27T03:38:21;14.68;;;6.00;;
27383;SDS011;14851;51.166;4.760;2024-01-27T03:40:47;18.23;;;5.90;;
27383;SDS011;14851;51.166;4.760;2024-01-27T03:43:13;14.60;;;5.40;;
27383;SDS011;14851;51.166;4.760;2024-01-27T03:45:44;11.52;;;5.25;;
27383;SDS011;14851;51.166;4.760;2024-01-27T03:48:10;12.07;;;5.13;;
27383;SDS011;14851;51.166;4.760;2024-01-27T03:50:38;15.98;;;5.10;;
27383;SDS011;14851;51.166;4.760;2024-01-27T03:53:06;13.55;;;6.55;;
27383;SDS011;14851;51.166;4.760;2024-01-27T03:55:31;19.05;;;5.85;;
27383;SDS011;14851;51.166;4.760;2024-01-27T03:57:59;13.75;;;5.32;;
27383;SDS011;14851;51.166;4.760;2024-01-27T04:00:25;12.18;;;5.78;;
27383;SDS011;14851;51.166;4.760;2024-01-27T04:02:57;17.52;;;6.28;;
27383;SDS011;14851;51.166;4.760;2024-01-27T04:05:23;12.02;;;5.60;;
27383;SDS011;14851;51.166;4.760;2024-01-27T04:07:49;16.40;;;5.70;;
27383;SDS011;14851;51.166;4.760;2024-01-27T04:10:16;15.23;;;5.57;;
27383;SDS011;14851;51.166;4.760;2024-01-27T04:12:45;13.70;;;6.18;;
27383;SDS011;14851;51.166;4.760;2024-01-27T04:15:13;14.80;;;5.85;;
27383;SDS011;14851;51.166;4.760;2024-01-27T04:17:40;13.27;;;5.85;;
27383;SDS011;14851;51.166;4.760;2024-01-27T04:20:07;12.20;;;5.53;;
27383;SDS011;14851;51.166;4.760;2024-01-27T04:22:33;12.32;;;5.72;;
27383;SDS011;14851;51.166;4.760;2024-01-27T04:25:00;16.95;;;6.07;;
27383;SDS011;14851;51.166;4.760;2024-01-27T04:27:29;19.58;;;5.50;;
27383;SDS011;14851;51.166;4.760;2024-01-27T04:30:00;14.32;;;5.45;;
27383;SDS011;14851;51.166;4.760;2024-01-27T04:32:28;16.15;;;5.68;;
27383;SDS011;14851;51.166;4.760;2024-01-27T04:34:54;14.75;;;6.15;;
27383;SDS011;14851;51.166;4.760;2024-01-27T04:37:22;19.88;;;6.68;;
27383;SDS011;14851;51.166;4.760;2024-01-27T04:39:48;14.95;;;5.95;;
27383;SDS011;14851;51.166;4.760;2024-01-27T04:42:16;17.35;;;6.03;;
27383;SDS011;14851;51.166;4.760;2024-01-27T04:44:42;17.52;;;5.95;;
27383;SDS011;14851;51.166;4.760;2024-01-27T04:47:08;15.95;;;5.80;;
27383;SDS011;14851;51.166;4.760;2024-01-27T04:49:34;14.07;;;5.70;;
27383;SDS011;14851;51.166;4.760;2024-01-27T04:51:59;12.00;;;5.47;;
27383;SDS011;14851;51.166;4.760;2024-01-27T04:54:27;13.77;;;6.22;;
27383;SDS011;14851;51.166;4.760;2024-01-27T04:56:53;16.85;;;6.13;;
27383;SDS011;14851;51.166;4.760;2024-01-27T04:59:22;17.77;;;5.65;;
27383;SDS011;14851;51.166;4.760;2024-01-27T05:01:50;11.10;;;5.32;;
27383;SDS011;14851;51.166;4.760;2024-01-27T05:04:16;15.43;;;6.88;;
27383;SDS011;14851;51.166;4.760;2024-01-27T05:06:45;14.43;;;5.38;;
27383;SDS011;14851;51.166;4.760;2024-01-27T05:09:16;12.32;;;5.60;;
27383;SDS011;14851;51.166;4.760;2024-01-27T05:11:45;15.02;;;6.88;;
27383;SDS011;14851;51.166;4.760;2024-01-27T05:14:11;14.07;;;5.78;;
27383;SDS011;14851;51.166;4.760;2024-01-27T05:16:37;12.73;;;6.13;;
27383;SDS011;14851;51.166;4.760;2024-01-27T05:19:05;17.38;;;6.15;;
27383;SDS011;14851;51.166;4.760;2024-01-27T05:21:33;18.60;;;5.45;;
27383;SDS011;14851;51.166;4.760;2024-01-27T05:23:59;16.63;;;7.10;;
27383;SDS011;14851;51.166;4.760;2024-01-27T05:26:24;17.52;;;6.53;;
27383;SDS011;14851;51.166;4.760;2024-01-27T05:28:50;13.57;;;6.75;;
27383;SDS011;14851;51.166;4.760;2024-01-27T05:31:19;14.50;;;6.75;;
27383;SDS011;14851;51.166;4.760;2024-01-27T05:33:47;15.88;;;6.30;;
27383;SDS011;14851;51.166;4.760;2024-01-27T05:36:13;14.80;;;6.10;;
27383;SDS011;14851;51.166;4.760;2024-01-27T05:38:41;15.20;;;6.80;;
27383;SDS011;14851;51.166;4.760;2024-01-27T05:41:09;16.27;;;6.07;;
27383;SDS011;14851;51.166;4.760;2024-01-27T05:43:35;15.73;;;5.82;;
27383;SDS011;14851;51.166;4.760;2024-01-27T05:46:01;17.38;;;6.78;;
27383;SDS011;14851;51.166;4.760;2024-01-27T05:48:27;14.02;;;6.28;;
27383;SDS011;14851;51.166;4.760;2024-01-27T05:50:59;15.93;;;6.63;;
27383;SDS011;14851;51.166;4.760;2024-01-27T05:53:26;15.82;;;6.28;;
27383;SDS011;14851;51.166;4.760;2024-01-27T05:55:52;15.80;;;6.32;;
27383;SDS011;14851;51.166;4.760;2024-01-27T05:58:22;21.55;;;7.75;;
27383;SDS011;14851;51.166;4.760;2024-01-27T06:00:48;13.18;;;6.35;;
27383;SDS011;14851;51.166;4.760;2024-01-27T06:03:14;16.42;;;6.55;;
27383;SDS011;14851;51.166;4.760;2024-01-27T06:05:41;16.55;;;7.05;;
27383;SDS011;14851;51.166;4.760;2024-01-27T06:08:10;16.58;;;6.30;;
27383;SDS011;14851;51.166;4.760;2024-01-27T06:10:36;16.58;;;6.65;;
27383;SDS011;14851;51.166;4.760;2024-01-27T06:13:05;13.40;;;6.20;;
27383;SDS011;14851;51.166;4.760;2024-01-27T06:15:31;13.95;;;6.63;;
27383;SDS011;14851;51.166;4.760;2024-01-27T06:17:59;17.23;;;7.35;;
27383;SDS011;14851;51.166;4.760;2024-01-27T06:20:27;19.15;;;6.45;;
27383;SDS011;14851;51.166;4.760;2024-01-27T06:22:53;12.30;;;6.18;;
27383;SDS011;14851;51.166;4.760;2024-01-27T06:25:20;12.85;;;6.35;;
27383;SDS011;14851;51.166;4.760;2024-01-27T06:27:46;16.05;;;6.93;;
27383;SDS011;14851;51.166;4.760;2024-01-27T06:30:12;15.63;;;7.25;;
27383;SDS011;14851;51.166;4.760;2024-01-27T06:32:39;21.45;;;7.10;;
27383;SDS011;14851;51.166;4.760;2024-01-27T06:35:05;19.42;;;7.80;;
27383;SDS011;14851;51.166;4.760;2024-01-27T06:37:31;20.35;;;7.10;;
27383;SDS011;14851;51.166;4.760;2024-01-27T06:39:56;21.48;;;7.78;;
27383;SDS011;14851;51.166;4.760;2024-01-27T06:42:22;17.42;;;7.95;;
27383;SDS011;14851;51.166;4.760;2024-01-27T06:44:48;15.68;;;6.80;;
27383;SDS011;14851;51.166;4.760;2024-01-27T06:49:46;16.55;;;6.93;;
27383;SDS011;14851;51.166;4.760;2024-01-27T06:52:12;22.63;;;7.97;;
27383;SDS011;14851;51.166;4.760;2024-01-27T06:54:38;15.85;;;7.05;;
27383;SDS011;14851;51.166;4.760;2024-01-27T06:57:17;23.23;;;7.72;;
27383;SDS011;14851;51.166;4.760;2024-01-27T06:59:45;16.10;;;7.15;;
27383;SDS011;14851;51.166;4.760;2024-01-27T07:02:23;14.00;;;6.28;;
27383;SDS011;14851;51.166;4.760;2024-01-27T07:04:52;17.48;;;8.07;;
27383;SDS011;14851;51.166;4.760;2024-01-27T07:07:27;15.80;;;7.80;;
27383;SDS011;14851;51.166;4.760;2024-01-27T07:09:54;16.10;;;7.68;;
27383;SDS011;14851;51.166;4.760;2024-01-27T07:12:21;17.50;;;7.65;;
27383;SDS011;14851;51.166;4.760;2024-01-27T07:14:47;19.33;;;8.32;;
27383;SDS011;14851;51.166;4.760;2024-01-27T07:17:12;19.63;;;7.40;;
27383;SDS011;14851;51.166;4.760;2024-01-27T07:19:38;21.30;;;7.63;;
27383;SDS011;14851;51.166;4.760;2024-01-27T07:22:04;21.02;;;7.93;;
27383;SDS011;14851;51.166;4.760;2024-01-27T07:24:30;18.40;;;7.57;;
27383;SDS011;14851;51.166;4.760;2024-01-27T07:26:56;20.38;;;7.80;;
27383;SDS011;14851;51.166;4.760;2024-01-27T07:29:23;15.90;;;7.53;;
27383;SDS011;14851;51.166;4.760;2024-01-27T07:31:49;14.18;;;6.85;;
27383;SDS011;14851;51.166;4.760;2024-01-27T07:34:15;20.63;;;8.63;;
27383;SDS011;14851;51.166;4.760;2024-01-27T07:36:41;18.80;;;8.02;;
27383;SDS011;14851;51.166;4.760;2024-01-27T07:39:07;22.85;;;7.70;;
27383;SDS011;14851;51.166;4.760;2024-01-27T07:41:33;20.33;;;7.30;;
27383;SDS011;14851;51.166;4.760;2024-01-27T07:44:09;17.42;;;7.78;;
27383;SDS011;14851;51.166;4.760;2024-01-27T07:46:36;18.80;;;7.82;;
27383;SDS011;14851;51.166;4.760;2024-01-27T07:49:03;17.38;;;7.43;;
27383;SDS011;14851;51.166;4.760;2024-01-27T07:51:30;20.13;;;8.00;;
27383;SDS011;14851;51.166;4.760;2024-01-27T07:53:56;15.07;;;6.88;;
27383;SDS011;14851;51.166;4.760;2024-01-27T07:56:22;18.98;;;7.22;;
27383;SDS011;14851;51.166;4.760;2024-01-27T07:58:51;20.25;;;7.43;;
27383;SDS011;14851;51.166;4.760;2024-01-27T08:01:19;21.25;;;6.95;;
27383;SDS011;14851;51.166;4.760;2024-01-27T08:03:44;21.35;;;7.00;;
27383;SDS011;14851;51.166;4.760;2024-01-27T08:06:26;17.52;;;7.50;;
27383;SDS011;14851;51.166;4.760;2024-01-27T08:08:53;16.30;;;7.43;;
27383;SDS011;14851;51.166;4.760;2024-01-27T08:11:21;21.15;;;7.57;;
27383;SDS011;14851;51.166;4.760;2024-01-27T08:13:49;14.05;;;5.95;;
27383;SDS011;14851;51.166;4.760;2024-01-27T08:16:19;19.93;;;7.80;;
27383;SDS011;14851;51.166;4.760;2024-01-27T08:18:49;15.25;;;6.22;;
27383;SDS011;14851;51.166;4.760;2024-01-27T08:21:16;16.65;;;7.03;;
27383;SDS011;14851;51.166;4.760;2024-01-27T08:23:44;16.00;;;6.70;;
27383;SDS011;14851;51.166;4.760;2024-01-27T08:26:10;25.35;;;8.40;;
27383;SDS011;14851;51.166;4.760;2024-01-27T08:28:36;13.68;;;7.00;;
27383;SDS011;14851;51.166;4.760;2024-01-27T08:31:02;17.17;;;6.90;;
27383;SDS011;14851;51.166;4.760;2024-01-27T08:33:28;20.05;;;7.30;;
27383;SDS011;14851;51.166;4.760;2024-01-27T08:35:54;14.63;;;7.65;;
27383;SDS011;14851;51.166;4.760;2024-01-27T08:38:19;22.15;;;7.43;;
27383;SDS011;14851;51.166;4.760;2024-01-27T08:40:45;17.35;;;6.82;;
27383;SDS011;14851;51.166;4.760;2024-01-27T08:43:11;19.42;;;7.18;;
27383;SDS011;14851;51.166;4.760;2024-01-27T08:45:37;20.83;;;7.13;;
27383;SDS011;14851;51.166;4.760;2024-01-27T08:48:11;20.77;;;6.50;;
27383;SDS011;14851;51.166;4.760;2024-01-27T08:50:37;25.63;;;6.97;;
27383;SDS011;14851;51.166;4.760;2024-01-27T08:53:04;18.10;;;7.22;;
27383;SDS011;14851;51.166;4.760;2024-01-27T08:55:31;16.70;;;6.45;;
27383;SDS011;14851;51.166;4.760;2024-01-27T08:57:56;20.73;;;6.93;;
27383;SDS011;14851;51.166;4.760;2024-01-27T09:00:22;22.85;;;8.75;;
27383;SDS011;14851;51.166;4.760;2024-01-27T09:02:51;19.02;;;6.90;;
27383;SDS011;14851;51.166;4.760;2024-01-27T09:05:17;15.40;;;6.28;;
27383;SDS011;14851;51.166;4.760;2024-01-27T09:07:43;14.80;;;6.22;;
27383;SDS011;14851;51.166;4.760;2024-01-27T09:10:09;19.90;;;8.38;;
27383;SDS011;14851;51.166;4.760;2024-01-27T09:12:39;25.25;;;8.48;;
27383;SDS011;14851;51.166;4.760;2024-01-27T09:15:05;17.90;;;7.55;;
27383;SDS011;14851;51.166;4.760;2024-01-27T09:17:32;16.92;;;6.97;;
27383;SDS011;14851;51.166;4.760;2024-01-27T09:19:58;12.52;;;6.13;;
27383;SDS011;14851;51.166;4.760;2024-01-27T09:22:24;19.27;;;7.97;;
27383;SDS011;14851;51.166;4.760;2024-01-27T09:24:50;15.32;;;5.85;;
27383;SDS011;14851;51.166;4.760;2024-01-27T09:27:17;18.95;;;6.40;;
27383;SDS011;14851;51.166;4.760;2024-01-27T09:29:43;18.27;;;7.63;;
27383;SDS011;14851;51.166;4.760;2024-01-27T09:32:08;24.08;;;7.22;;
27383;SDS011;14851;51.166;4.760;2024-01-27T09:34:34;21.70;;;7.07;;
27383;SDS011;14851;51.166;4.760;2024-01-27T09:37:01;32.85;;;8.68;;
27383;SDS011;14851;51.166;4.760;2024-01-27T09:39:27;20.75;;;7.60;;
27383;SDS011;14851;51.166;4.760;2024-01-27T09:41:55;22.02;;;7.55;;
27383;SDS011;14851;51.166;4.760;2024-01-27T09:44:26;23.10;;;6.70;;
27383;SDS011;14851;51.166;4.760;2024-01-27T09:46:53;18.90;;;6.90;;
27383;SDS011;14851;51.166;4.760;2024-01-27T09:49:20;15.23;;;7.05;;
27383;SDS011;14851;51.166;4.760;2024-01-27T09:51:46;19.13;;;5.70;;
27383;SDS011;14851;51.166;4.760;2024-01-27T09:54:12;15.13;;;5.80;;
27383;SDS011;14851;51.166;4.760;2024-01-27T09:56:37;17.33;;;7.43;;
27383;SDS011;14851;51.166;4.760;2024-01-27T09:59:05;21.95;;;8.13;;
27383;SDS011;14851;51.166;4.760;2024-01-27T10:01:31;23.02;;;6.95;;
27383;SDS011;14851;51.166;4.760;2024-01-27T10:03:58;22.00;;;7.80;;
27383;SDS011;14851;51.166;4.760;2024-01-27T10:06:25;23.42;;;8.20;;
27383;SDS011;14851;51.166;4.760;2024-01-27T10:08:56;29.65;;;7.47;;
27383;SDS011;14851;51.166;4.760;2024-01-27T10:11:25;27.38;;;7.80;;
27383;SDS011;14851;51.166;4.760;2024-01-27T10:13:54;21.55;;;7.35;;
27383;SDS011;14851;51.166;4.760;2024-01-27T10:16:21;21.75;;;7.13;;
27383;SDS011;14851;51.166;4.760;2024-01-27T10:18:58;20.45;;;6.85;;
27383;SDS011;14851;51.166;4.760;2024-01-27T10:21:27;23.98;;;7.00;;
27383;SDS011;14851;51.166;4.760;2024-01-27T10:23:56;27.52;;;7.55;;
27383;SDS011;14851;51.166;4.760;2024-01-27T10:26:24;24.30;;;6.53;;
27383;SDS011;14851;51.166;4.760;2024-01-27T10:28:54;19.48;;;6.78;;
27383;SDS011;14851;51.166;4.760;2024-01-27T10:31:28;17.73;;;6.10;;
27383;SDS011;14851;51.166;4.760;2024-01-27T10:33:57;32.10;;;8.32;;
27383;SDS011;14851;51.166;4.760;2024-01-27T10:36:24;17.20;;;5.15;;
27383;SDS011;14851;51.166;4.760;2024-01-27T10:38:53;22.55;;;6.75;;
27383;SDS011;14851;51.166;4.760;2024-01-27T10:41:23;19.83;;;6.85;;
27383;SDS011;14851;51.166;4.760;2024-01-27T10:43:51;26.17;;;7.70;;
27383;SDS011;14851;51.166;4.760;2024-01-27T10:48:50;26.65;;;6.78;;
27383;SDS011;14851;51.166;4.760;2024-01-27T10:51:28;20.05;;;6.10;;
27383;SDS011;14851;51.166;4.760;2024-01-27T10:54:06;23.15;;;5.75;;
27383;SDS011;14851;51.166;4.760;2024-01-27T10:56:36;20.02;;;5.53;;
27383;SDS011;14851;51.166;4.760;2024-01-27T10:59:06;19.77;;;6.50;;
27383;SDS011;14851;51.166;4.760;2024-01-27T11:01:35;16.45;;;5.65;;
27383;SDS011;14851;51.166;4.760;2024-01-27T11:04:03;17.58;;;5.15;;
27383;SDS011;14851;51.166;4.760;2024-01-27T11:06:31;18.58;;;5.65;;
27383;SDS011;14851;51.166;4.760;2024-01-27T11:09:01;19.10;;;5.55;;
27383;SDS011;14851;51.166;4.760;2024-01-27T11:11:30;25.63;;;6.82;;
27383;SDS011;14851;51.166;4.760;2024-01-27T11:13:59;15.07;;;5.38;;
27383;SDS011;14851;51.166;4.760;2024-01-27T11:16:25;22.10;;;6.45;;
27383;SDS011;14851;51.166;4.760;2024-01-27T11:18:53;15.77;;;5.05;;
27383;SDS011;14851;51.166;4.760;2024-01-27T11:21:20;21.17;;;5.72;;
27383;SDS011;14851;51.166;4.760;2024-01-27T11:23:45;15.23;;;5.30;;
27383;SDS011;14851;51.166;4.760;2024-01-27T11:26:17;24.40;;;5.72;;
27383;SDS011;14851;51.166;4.760;2024-01-27T11:28:45;17.83;;;4.93;;
27383;SDS011;14851;51.166;4.760;2024-01-27T11:31:10;16.55;;;5.15;;
27383;SDS011;14851;51.166;4.760;2024-01-27T11:33:41;21.05;;;5.60;;
27383;SDS011;14851;51.166;4.760;2024-01-27T11:36:18;19.63;;;5.55;;
27383;SDS011;14851;51.166;4.760;2024-01-27T11:38:47;19.65;;;5.28;;
27383;SDS011;14851;51.166;4.760;2024-01-27T11:41:22;17.08;;;4.88;;
27383;SDS011;14851;51.166;4.760;2024-01-27T11:43:53;13.38;;;3.97;;
27383;SDS011;14851;51.166;4.760;2024-01-27T11:46:19;17.10;;;5.32;;
27383;SDS011;14851;51.166;4.760;2024-01-27T11:48:45;16.92;;;3.85;;
27383;SDS011;14851;51.166;4.760;2024-01-27T11:51:14;18.10;;;4.88;;
27383;SDS011;14851;51.166;4.760;2024-01-27T11:53:40;13.95;;;4.00;;
27383;SDS011;14851;51.166;4.760;2024-01-27T11:56:07;14.27;;;3.95;;
27383;SDS011;14851;51.166;4.760;2024-01-27T11:58:33;17.52;;;4.18;;
27383;SDS011;14851;51.166;4.760;2024-01-27T12:00:59;20.58;;;5.55;;
27383;SDS011;14851;51.166;4.760;2024-01-27T12:03:27;14.35;;;4.53;;
27383;SDS011;14851;51.166;4.760;2024-01-27T12:05:54;18.67;;;5.82;;
27383;SDS011;14851;51.166;4.760;2024-01-27T12:08:22;18.20;;;4.45;;
27383;SDS011;14851;51.166;4.760;2024-01-27T12:10:48;13.70;;;4.28;;
27383;SDS011;14851;51.166;4.760;2024-01-27T12:13:15;23.38;;;7.05;;
27383;SDS011;14851;51.166;4.760;2024-01-27T12:15:40;20.35;;;6.45;;
27383;SDS011;14851;51.166;4.760;2024-01-27T12:18:07;22.63;;;5.57;;
27383;SDS011;14851;51.166;4.760;2024-01-27T12:20:34;15.27;;;5.20;;
27383;SDS011;14851;51.166;4.760;2024-01-27T12:23:04;13.50;;;4.53;;
27383;SDS011;14851;51.166;4.760;2024-01-27T12:25:30;12.02;;;3.45;;
27383;SDS011;14851;51.166;4.760;2024-01-27T12:27:55;12.95;;;3.83;;
27383;SDS011;14851;51.166;4.760;2024-01-27T12:30:26;16.00;;;5.05;;
27383;SDS011;14851;51.166;4.760;2024-01-27T12:32:52;13.57;;;4.20;;
27383;SDS011;14851;51.166;4.760;2024-01-27T12:35:18;15.07;;;4.65;;
27383;SDS011;14851;51.166;4.760;2024-01-27T12:37:49;13.43;;;4.35;;
27383;SDS011;14851;51.166;4.760;2024-01-27T12:40:18;15.05;;;3.88;;
27383;SDS011;14851;51.166;4.760;2024-01-27T12:42:49;12.73;;;4.20;;
27383;SDS011;14851;51.166;4.760;2024-01-27T12:45:17;14.38;;;2.92;;
27383;SDS011;14851;51.166;4.760;2024-01-27T12:47:43;14.63;;;3.10;;
27383;SDS011;14851;51.166;4.760;2024-01-27T12:50:09;10.98;;;2.88;;
27383;SDS011;14851;51.166;4.760;2024-01-27T12:52:36;15.55;;;3.70;;
27383;SDS011;14851;51.166;4.760;2024-01-27T12:55:07;12.75;;;3.50;;
27383;SDS011;14851;51.166;4.760;2024-01-27T12:57:33;12.30;;;3.83;;
27383;SDS011;14851;51.166;4.760;2024-01-27T13:00:02;15.00;;;3.63;;
27383;SDS011;14851;51.166;4.760;2024-01-27T13:02:35;12.23;;;3.78;;
27383;SDS011;14851;51.166;4.760;2024-01-27T13:05:02;12.60;;;3.38;;
27383;SDS011;14851;51.166;4.760;2024-01-27T13:07:28;16.10;;;3.83;;
27383;SDS011;14851;51.166;4.760;2024-01-27T13:09:57;17.05;;;3.58;;
27383;SDS011;14851;51.166;4.760;2024-01-27T13:12:23;13.75;;;3.17;;
27383;SDS011;14851;51.166;4.760;2024-01-27T13:14:49;15.60;;;4.72;;
27383;SDS011;14851;51.166;4.760;2024-01-27T13:17:17;12.48;;;3.95;;
27383;SDS011;14851;51.166;4.760;2024-01-27T13:19:45;13.85;;;4.25;;
27383;SDS011;14851;51.166;4.760;2024-01-27T13:22:11;16.60;;;4.03;;
27383;SDS011;14851;51.166;4.760;2024-01-27T13:24:39;11.15;;;3.33;;
27383;SDS011;14851;51.166;4.760;2024-01-27T13:27:10;10.73;;;3.30;;
27383;SDS011;14851;51.166;4.760;2024-01-27T13:29:36;17.13;;;4.00;;
27383;SDS011;14851;51.166;4.760;2024-01-27T13:32:02;12.93;;;4.32;;
27383;SDS011;14851;51.166;4.760;2024-01-27T13:34:28;12.30;;;4.18;;
27383;SDS011;14851;51.166;4.760;2024-01-27T13:36:56;21.80;;;7.55;;
27383;SDS011;14851;51.166;4.760;2024-01-27T13:39:22;15.02;;;5.28;;
27383;SDS011;14851;51.166;4.760;2024-01-27T13:41:48;15.00;;;4.47;;
27383;SDS011;14851;51.166;4.760;2024-01-27T13:44:16;13.80;;;4.05;;
27383;SDS011;14851;51.166;4.760;2024-01-27T13:46:42;15.75;;;3.58;;
27383;SDS011;14851;51.166;4.760;2024-01-27T13:49:08;16.58;;;4.45;;
27383;SDS011;14851;51.166;4.760;2024-01-27T13:51:36;11.57;;;4.32;;
27383;SDS011;14851;51.166;4.760;2024-01-27T13:54:02;12.63;;;3.90;;
27383;SDS011;14851;51.166;4.760;2024-01-27T13:56:28;15.55;;;4.88;;
27383;SDS011;14851;51.166;4.760;2024-01-27T13:58:57;12.55;;;4.10;;
27383;SDS011;14851;51.166;4.760;2024-01-27T14:01:23;15.27;;;5.00;;
27383;SDS011;14851;51.166;4.760;2024-01-27T14:03:49;15.20;;;5.68;;
27383;SDS011;14851;51.166;4.760;2024-01-27T14:06:15;16.83;;;5.00;;
27383;SDS011;14851;51.166;4.760;2024-01-27T14:08:40;17.08;;;4.75;;
27383;SDS011;14851;51.166;4.760;2024-01-27T14:11:07;11.82;;;4.15;;
27383;SDS011;14851;51.166;4.760;2024-01-27T14:13:33;12.88;;;4.60;;
27383;SDS011;14851;51.166;4.760;2024-01-27T14:16:01;14.90;;;4.90;;
27383;SDS011;14851;51.166;4.760;2024-01-27T14:18:26;8.65;;;3.83;;
27383;SDS011;14851;51.166;4.760;2024-01-27T14:20:53;9.25;;;3.25;;
27383;SDS011;14851;51.166;4.760;2024-01-27T14:23:19;13.23;;;3.92;;
27383;SDS011;14851;51.166;4.760;2024-01-27T14:25:47;12.65;;;5.47;;
27383;SDS011;14851;51.166;4.760;2024-01-27T14:28:16;10.27;;;3.42;;
27383;SDS011;14851;51.166;4.760;2024-01-27T14:30:42;13.45;;;3.90;;
27383;SDS011;14851;51.166;4.760;2024-01-27T14:33:12;11.77;;;5.43;;
27383;SDS011;14851;51.166;4.760;2024-01-27T14:35:38;9.45;;;3.22;;
27383;SDS011;14851;51.166;4.760;2024-01-27T14:38:07;13.98;;;5.22;;
27383;SDS011;14851;51.166;4.760;2024-01-27T14:40:34;8.40;;;3.45;;